Terminal Aerodrome Forecast
Issued by NWS

Home | Current Version | Previous Version | Text Only | Print | Product List | Glossary On
Versions: 1 2 3 4 5 6 7 8 9 10 11 12 13 14 15 16 17 18 19
000
FTUS43 KPAH 180800 AAA
TAFCGI
TAF AMD
KCGI 180834Z 1809/1906 VRB03KT P6SM -RASN SCT025 OVC050
      TEMPO 1809/1812 4SM BR OVC025
     FM181200 05004KT 4SM BR OVC010
      TEMPO 1812/1815 2SM -SNPL OVC005
     FM181800 04004KT P6SM SCT010 OVC030
     FM182300 06003KT P6SM OVC040=

USA.gov is the U.S. government's official web portal to all federal, state and local government web resources and services.